sensor_id;sensor_type;location;lat;lon;timestamp;P1;durP1;ratioP1;P2;durP2;ratioP2
63492;SDS011;49638;47.526;10.028;2023-03-01T00:01:00;33.88;;;13.13;;
63492;SDS011;49638;47.526;10.028;2023-03-01T00:04:01;27.75;;;11.75;;
63492;SDS011;49638;47.526;10.028;2023-03-01T00:07:02;31.83;;;12.13;;
63492;SDS011;49638;47.526;10.028;2023-03-01T00:10:02;28.73;;;11.60;;
63492;SDS011;49638;47.526;10.028;2023-03-01T00:13:03;28.38;;;11.98;;
63492;SDS011;49638;47.526;10.028;2023-03-01T00:16:06;27.80;;;11.32;;
63492;SDS011;49638;47.526;10.028;2023-03-01T00:19:13;29.55;;;12.85;;
63492;SDS011;49638;47.526;10.028;2023-03-01T00:22:15;30.73;;;12.80;;
63492;SDS011;49638;47.526;10.028;2023-03-01T00:25:15;31.83;;;12.63;;
63492;SDS011;49638;47.526;10.028;2023-03-01T00:28:15;35.67;;;12.80;;
63492;SDS011;49638;47.526;10.028;2023-03-01T00:31:19;32.90;;;13.10;;
63492;SDS011;49638;47.526;10.028;2023-03-01T00:34:21;29.63;;;11.88;;
63492;SDS011;49638;47.526;10.028;2023-03-01T00:37:22;31.05;;;12.45;;
63492;SDS011;49638;47.526;10.028;2023-03-01T00:40:23;30.77;;;13.10;;
63492;SDS011;49638;47.526;10.028;2023-03-01T00:43:24;30.38;;;12.60;;
63492;SDS011;49638;47.526;10.028;2023-03-01T00:46:26;29.52;;;11.95;;
63492;SDS011;49638;47.526;10.028;2023-03-01T00:49:27;27.25;;;12.30;;
63492;SDS011;49638;47.526;10.028;2023-03-01T00:52:27;29.83;;;12.27;;
63492;SDS011;49638;47.526;10.028;2023-03-01T00:55:28;28.70;;;12.38;;
63492;SDS011;49638;47.526;10.028;2023-03-01T00:58:28;30.83;;;12.10;;
63492;SDS011;49638;47.526;10.028;2023-03-01T01:01:30;31.23;;;13.18;;
63492;SDS011;49638;47.526;10.028;2023-03-01T01:04:30;30.52;;;13.05;;
63492;SDS011;49638;47.526;10.028;2023-03-01T01:07:30;31.52;;;12.88;;
63492;SDS011;49638;47.526;10.028;2023-03-01T01:10:32;29.08;;;13.07;;
63492;SDS011;49638;47.526;10.028;2023-03-01T01:13:34;31.50;;;12.93;;
63492;SDS011;49638;47.526;10.028;2023-03-01T01:16:34;33.50;;;13.13;;
63492;SDS011;49638;47.526;10.028;2023-03-01T01:19:34;30.80;;;12.43;;
63492;SDS011;49638;47.526;10.028;2023-03-01T01:22:34;31.67;;;13.35;;
63492;SDS011;49638;47.526;10.028;2023-03-01T01:25:35;31.42;;;12.85;;
63492;SDS011;49638;47.526;10.028;2023-03-01T01:28:36;26.67;;;11.38;;
63492;SDS011;49638;47.526;10.028;2023-03-01T01:31:37;26.58;;;10.82;;
63492;SDS011;49638;47.526;10.028;2023-03-01T01:34:39;25.38;;;11.05;;
63492;SDS011;49638;47.526;10.028;2023-03-01T01:37:39;29.45;;;11.90;;
63492;SDS011;49638;47.526;10.028;2023-03-01T01:40:43;26.77;;;11.55;;
63492;SDS011;49638;47.526;10.028;2023-03-01T01:43:46;28.08;;;12.43;;
63492;SDS011;49638;47.526;10.028;2023-03-01T01:46:52;31.05;;;13.43;;
63492;SDS011;49638;47.526;10.028;2023-03-01T01:49:56;29.90;;;12.55;;
63492;SDS011;49638;47.526;10.028;2023-03-01T01:52:57;29.40;;;13.30;;
63492;SDS011;49638;47.526;10.028;2023-03-01T01:55:58;26.67;;;12.00;;
63492;SDS011;49638;47.526;10.028;2023-03-01T01:59:00;30.55;;;12.70;;
63492;SDS011;49638;47.526;10.028;2023-03-01T02:02:02;30.83;;;12.45;;
63492;SDS011;49638;47.526;10.028;2023-03-01T02:05:19;30.38;;;13.45;;
63492;SDS011;49638;47.526;10.028;2023-03-01T02:08:27;30.00;;;12.60;;
63492;SDS011;49638;47.526;10.028;2023-03-01T02:11:30;32.88;;;12.13;;
63492;SDS011;49638;47.526;10.028;2023-03-01T02:14:33;31.52;;;12.75;;
63492;SDS011;49638;47.526;10.028;2023-03-01T02:17:33;28.88;;;12.15;;
63492;SDS011;49638;47.526;10.028;2023-03-01T02:20:40;27.98;;;11.95;;
63492;SDS011;49638;47.526;10.028;2023-03-01T02:23:43;28.63;;;12.23;;
63492;SDS011;49638;47.526;10.028;2023-03-01T02:26:48;30.73;;;12.85;;
63492;SDS011;49638;47.526;10.028;2023-03-01T02:29:51;29.83;;;11.98;;
63492;SDS011;49638;47.526;10.028;2023-03-01T02:32:52;29.30;;;13.00;;
63492;SDS011;49638;47.526;10.028;2023-03-01T02:36:09;26.48;;;11.13;;
63492;SDS011;49638;47.526;10.028;2023-03-01T02:39:29;27.17;;;11.52;;
63492;SDS011;49638;47.526;10.028;2023-03-01T02:42:33;27.27;;;11.93;;
63492;SDS011;49638;47.526;10.028;2023-03-01T02:45:43;29.25;;;12.02;;
63492;SDS011;49638;47.526;10.028;2023-03-01T02:48:52;24.80;;;10.63;;
63492;SDS011;49638;47.526;10.028;2023-03-01T02:55:13;24.05;;;10.50;;
63492;SDS011;49638;47.526;10.028;2023-03-01T02:58:16;26.85;;;11.23;;
63492;SDS011;49638;47.526;10.028;2023-03-01T03:01:17;27.38;;;11.85;;
63492;SDS011;49638;47.526;10.028;2023-03-01T03:04:19;28.27;;;10.73;;
63492;SDS011;49638;47.526;10.028;2023-03-01T03:07:20;22.73;;;10.48;;
63492;SDS011;49638;47.526;10.028;2023-03-01T03:10:22;25.33;;;10.85;;
63492;SDS011;49638;47.526;10.028;2023-03-01T03:13:24;26.02;;;10.93;;
63492;SDS011;49638;47.526;10.028;2023-03-01T03:16:28;23.70;;;10.50;;
63492;SDS011;49638;47.526;10.028;2023-03-01T03:19:29;25.23;;;10.82;;
63492;SDS011;49638;47.526;10.028;2023-03-01T03:22:30;23.48;;;10.45;;
63492;SDS011;49638;47.526;10.028;2023-03-01T03:25:31;27.48;;;10.90;;
63492;SDS011;49638;47.526;10.028;2023-03-01T03:28:33;27.25;;;11.40;;
63492;SDS011;49638;47.526;10.028;2023-03-01T03:31:34;27.30;;;11.20;;
63492;SDS011;49638;47.526;10.028;2023-03-01T03:34:34;27.15;;;11.57;;
63492;SDS011;49638;47.526;10.028;2023-03-01T03:37:36;28.13;;;11.80;;
63492;SDS011;49638;47.526;10.028;2023-03-01T03:41:03;29.40;;;11.60;;
63492;SDS011;49638;47.526;10.028;2023-03-01T03:44:05;29.10;;;11.85;;
63492;SDS011;49638;47.526;10.028;2023-03-01T03:47:05;30.00;;;12.57;;
63492;SDS011;49638;47.526;10.028;2023-03-01T03:50:05;28.88;;;12.00;;
63492;SDS011;49638;47.526;10.028;2023-03-01T03:53:07;27.00;;;10.75;;
63492;SDS011;49638;47.526;10.028;2023-03-01T03:56:10;27.08;;;11.43;;
63492;SDS011;49638;47.526;10.028;2023-03-01T03:59:10;24.63;;;10.55;;
63492;SDS011;49638;47.526;10.028;2023-03-01T04:02:11;26.88;;;11.07;;
63492;SDS011;49638;47.526;10.028;2023-03-01T04:05:12;25.60;;;10.48;;
63492;SDS011;49638;47.526;10.028;2023-03-01T04:08:14;25.92;;;11.52;;
63492;SDS011;49638;47.526;10.028;2023-03-01T04:11:14;27.13;;;11.25;;
63492;SDS011;49638;47.526;10.028;2023-03-01T04:14:26;23.60;;;10.25;;
63492;SDS011;49638;47.526;10.028;2023-03-01T04:17:27;23.45;;;10.90;;
63492;SDS011;49638;47.526;10.028;2023-03-01T04:20:28;24.77;;;9.68;;
63492;SDS011;49638;47.526;10.028;2023-03-01T04:23:30;23.13;;;9.90;;
63492;SDS011;49638;47.526;10.028;2023-03-01T04:26:30;21.15;;;9.20;;
63492;SDS011;49638;47.526;10.028;2023-03-01T04:29:31;23.20;;;10.30;;
63492;SDS011;49638;47.526;10.028;2023-03-01T04:32:31;25.35;;;10.07;;
63492;SDS011;49638;47.526;10.028;2023-03-01T04:35:31;22.15;;;9.70;;
63492;SDS011;49638;47.526;10.028;2023-03-01T04:38:32;22.45;;;9.15;;
63492;SDS011;49638;47.526;10.028;2023-03-01T04:41:33;23.65;;;9.63;;
63492;SDS011;49638;47.526;10.028;2023-03-01T04:44:34;23.92;;;10.43;;
63492;SDS011;49638;47.526;10.028;2023-03-01T04:47:34;22.60;;;9.35;;
63492;SDS011;49638;47.526;10.028;2023-03-01T04:53:38;22.55;;;9.27;;
63492;SDS011;49638;47.526;10.028;2023-03-01T04:56:39;24.42;;;9.85;;
63492;SDS011;49638;47.526;10.028;2023-03-01T04:59:40;22.92;;;9.38;;
63492;SDS011;49638;47.526;10.028;2023-03-01T05:02:40;20.85;;;9.45;;
63492;SDS011;49638;47.526;10.028;2023-03-01T05:05:40;24.40;;;10.25;;
63492;SDS011;49638;47.526;10.028;2023-03-01T05:08:41;24.77;;;10.25;;
63492;SDS011;49638;47.526;10.028;2023-03-01T05:11:42;30.13;;;11.73;;
63492;SDS011;49638;47.526;10.028;2023-03-01T05:14:43;21.70;;;9.73;;
63492;SDS011;49638;47.526;10.028;2023-03-01T05:17:43;27.98;;;11.23;;
63492;SDS011;49638;47.526;10.028;2023-03-01T05:20:44;25.90;;;11.38;;
63492;SDS011;49638;47.526;10.028;2023-03-01T05:23:44;28.73;;;11.07;;
63492;SDS011;49638;47.526;10.028;2023-03-01T05:26:45;28.98;;;11.57;;
63492;SDS011;49638;47.526;10.028;2023-03-01T05:29:48;26.88;;;11.50;;
63492;SDS011;49638;47.526;10.028;2023-03-01T05:32:49;28.30;;;10.82;;
63492;SDS011;49638;47.526;10.028;2023-03-01T05:35:59;29.33;;;11.43;;
63492;SDS011;49638;47.526;10.028;2023-03-01T05:39:00;29.48;;;11.32;;
63492;SDS011;49638;47.526;10.028;2023-03-01T05:42:00;27.17;;;10.93;;
63492;SDS011;49638;47.526;10.028;2023-03-01T05:45:01;27.30;;;11.15;;
63492;SDS011;49638;47.526;10.028;2023-03-01T05:48:01;26.25;;;11.18;;
63492;SDS011;49638;47.526;10.028;2023-03-01T05:51:01;21.90;;;9.45;;
63492;SDS011;49638;47.526;10.028;2023-03-01T05:54:02;22.63;;;9.73;;
63492;SDS011;49638;47.526;10.028;2023-03-01T05:57:02;23.60;;;10.43;;
63492;SDS011;49638;47.526;10.028;2023-03-01T06:00:02;27.45;;;12.35;;
63492;SDS011;49638;47.526;10.028;2023-03-01T06:03:03;22.98;;;8.98;;
63492;SDS011;49638;47.526;10.028;2023-03-01T06:06:03;25.17;;;9.60;;
63492;SDS011;49638;47.526;10.028;2023-03-01T06:09:04;23.67;;;9.52;;
63492;SDS011;49638;47.526;10.028;2023-03-01T06:12:07;25.23;;;9.52;;
63492;SDS011;49638;47.526;10.028;2023-03-01T06:15:07;25.02;;;10.02;;
63492;SDS011;49638;47.526;10.028;2023-03-01T06:18:09;26.48;;;11.45;;
63492;SDS011;49638;47.526;10.028;2023-03-01T06:21:10;29.17;;;12.38;;
63492;SDS011;49638;47.526;10.028;2023-03-01T06:24:10;34.80;;;14.35;;
63492;SDS011;49638;47.526;10.028;2023-03-01T06:27:10;37.50;;;14.02;;
63492;SDS011;49638;47.526;10.028;2023-03-01T06:30:11;35.95;;;13.50;;
63492;SDS011;49638;47.526;10.028;2023-03-01T06:33:13;28.15;;;12.50;;
63492;SDS011;49638;47.526;10.028;2023-03-01T06:36:14;37.10;;;13.60;;
63492;SDS011;49638;47.526;10.028;2023-03-01T06:39:14;33.95;;;13.85;;
63492;SDS011;49638;47.526;10.028;2023-03-01T06:42:14;32.90;;;12.50;;
63492;SDS011;49638;47.526;10.028;2023-03-01T06:45:15;31.23;;;13.55;;
63492;SDS011;49638;47.526;10.028;2023-03-01T06:48:16;36.15;;;13.75;;
63492;SDS011;49638;47.526;10.028;2023-03-01T06:51:16;32.83;;;13.52;;
63492;SDS011;49638;47.526;10.028;2023-03-01T06:54:16;34.55;;;13.07;;
63492;SDS011;49638;47.526;10.028;2023-03-01T06:57:17;34.10;;;13.45;;
63492;SDS011;49638;47.526;10.028;2023-03-01T07:00:18;39.58;;;14.30;;
63492;SDS011;49638;47.526;10.028;2023-03-01T07:03:19;32.58;;;12.60;;
63492;SDS011;49638;47.526;10.028;2023-03-01T07:06:19;34.15;;;13.50;;
63492;SDS011;49638;47.526;10.028;2023-03-01T07:09:23;29.48;;;12.57;;
63492;SDS011;49638;47.526;10.028;2023-03-01T07:12:24;34.33;;;13.02;;
63492;SDS011;49638;47.526;10.028;2023-03-01T07:15:24;33.63;;;13.68;;
63492;SDS011;49638;47.526;10.028;2023-03-01T07:18:25;32.58;;;13.00;;
63492;SDS011;49638;47.526;10.028;2023-03-01T07:21:26;30.77;;;13.00;;
63492;SDS011;49638;47.526;10.028;2023-03-01T07:24:26;32.42;;;13.50;;
63492;SDS011;49638;47.526;10.028;2023-03-01T07:27:26;28.20;;;12.00;;
63492;SDS011;49638;47.526;10.028;2023-03-01T07:30:27;30.40;;;12.60;;
63492;SDS011;49638;47.526;10.028;2023-03-01T07:33:28;32.28;;;12.85;;
63492;SDS011;49638;47.526;10.028;2023-03-01T07:36:28;28.75;;;12.18;;
63492;SDS011;49638;47.526;10.028;2023-03-01T07:39:29;28.75;;;12.75;;
63492;SDS011;49638;47.526;10.028;2023-03-01T07:42:29;31.75;;;12.82;;
63492;SDS011;49638;47.526;10.028;2023-03-01T07:45:29;30.08;;;13.35;;
63492;SDS011;49638;47.526;10.028;2023-03-01T07:48:30;31.90;;;12.18;;
63492;SDS011;49638;47.526;10.028;2023-03-01T07:51:31;30.50;;;12.27;;
63492;SDS011;49638;47.526;10.028;2023-03-01T07:54:31;33.42;;;12.98;;
63492;SDS011;49638;47.526;10.028;2023-03-01T07:57:31;35.50;;;13.25;;
63492;SDS011;49638;47.526;10.028;2023-03-01T08:00:32;31.45;;;12.00;;
63492;SDS011;49638;47.526;10.028;2023-03-01T08:03:32;27.48;;;11.95;;
63492;SDS011;49638;47.526;10.028;2023-03-01T08:06:33;28.65;;;12.13;;
63492;SDS011;49638;47.526;10.028;2023-03-01T08:09:35;31.17;;;11.90;;
63492;SDS011;49638;47.526;10.028;2023-03-01T08:12:36;28.17;;;11.45;;
63492;SDS011;49638;47.526;10.028;2023-03-01T08:15:37;31.92;;;12.13;;
63492;SDS011;49638;47.526;10.028;2023-03-01T08:18:37;32.92;;;13.50;;
63492;SDS011;49638;47.526;10.028;2023-03-01T08:21:37;35.53;;;12.98;;
63492;SDS011;49638;47.526;10.028;2023-03-01T08:24:38;35.17;;;12.85;;
63492;SDS011;49638;47.526;10.028;2023-03-01T08:27:38;31.33;;;13.50;;
63492;SDS011;49638;47.526;10.028;2023-03-01T08:30:38;27.80;;;12.43;;
63492;SDS011;49638;47.526;10.028;2023-03-01T08:33:39;28.10;;;12.50;;
63492;SDS011;49638;47.526;10.028;2023-03-01T08:36:40;30.90;;;13.23;;
63492;SDS011;49638;47.526;10.028;2023-03-01T08:39:42;30.20;;;13.55;;
63492;SDS011;49638;47.526;10.028;2023-03-01T08:42:42;28.33;;;11.88;;
63492;SDS011;49638;47.526;10.028;2023-03-01T08:45:42;30.60;;;11.57;;
63492;SDS011;49638;47.526;10.028;2023-03-01T08:48:43;29.60;;;12.52;;
63492;SDS011;49638;47.526;10.028;2023-03-01T08:51:43;29.45;;;12.63;;
63492;SDS011;49638;47.526;10.028;2023-03-01T08:54:44;28.48;;;12.30;;
63492;SDS011;49638;47.526;10.028;2023-03-01T08:57:44;29.92;;;12.55;;
63492;SDS011;49638;47.526;10.028;2023-03-01T09:00:45;29.90;;;13.00;;
63492;SDS011;49638;47.526;10.028;2023-03-01T09:03:45;30.38;;;12.82;;
63492;SDS011;49638;47.526;10.028;2023-03-01T09:06:46;27.25;;;12.30;;
63492;SDS011;49638;47.526;10.028;2023-03-01T09:09:47;27.48;;;12.52;;
63492;SDS011;49638;47.526;10.028;2023-03-01T09:12:47;28.63;;;12.93;;
63492;SDS011;49638;47.526;10.028;2023-03-01T09:15:47;27.42;;;11.90;;
63492;SDS011;49638;47.526;10.028;2023-03-01T09:18:51;26.17;;;11.35;;
63492;SDS011;49638;47.526;10.028;2023-03-01T09:21:53;24.15;;;10.52;;
63492;SDS011;49638;47.526;10.028;2023-03-01T09:24:53;27.55;;;11.85;;
63492;SDS011;49638;47.526;10.028;2023-03-01T09:27:54;27.13;;;12.10;;
63492;SDS011;49638;47.526;10.028;2023-03-01T09:30:57;28.75;;;12.43;;
63492;SDS011;49638;47.526;10.028;2023-03-01T09:33:59;27.23;;;11.38;;
63492;SDS011;49638;47.526;10.028;2023-03-01T09:36:59;24.45;;;10.85;;
63492;SDS011;49638;47.526;10.028;2023-03-01T09:40:02;24.25;;;10.43;;
63492;SDS011;49638;47.526;10.028;2023-03-01T09:46:20;25.35;;;11.13;;
63492;SDS011;49638;47.526;10.028;2023-03-01T09:49:24;23.13;;;10.85;;
63492;SDS011;49638;47.526;10.028;2023-03-01T09:52:33;24.60;;;11.65;;
63492;SDS011;49638;47.526;10.028;2023-03-01T10:02:28;25.70;;;11.60;;
63492;SDS011;49638;47.526;10.028;2023-03-01T10:05:41;27.10;;;11.77;;
63492;SDS011;49638;47.526;10.028;2023-03-01T10:08:53;23.88;;;12.23;;
63492;SDS011;49638;47.526;10.028;2023-03-01T10:11:56;27.13;;;11.40;;
63492;SDS011;49638;47.526;10.028;2023-03-01T10:18:17;23.20;;;11.25;;
63492;SDS011;49638;47.526;10.028;2023-03-01T10:21:22;23.75;;;10.95;;
63492;SDS011;49638;47.526;10.028;2023-03-01T10:24:23;26.40;;;12.25;;
63492;SDS011;49638;47.526;10.028;2023-03-01T10:30:35;23.35;;;11.40;;
63492;SDS011;49638;47.526;10.028;2023-03-01T10:33:39;24.67;;;11.60;;
63492;SDS011;49638;47.526;10.028;2023-03-01T10:36:41;25.70;;;11.63;;
63492;SDS011;49638;47.526;10.028;2023-03-01T10:43:05;23.92;;;12.05;;
63492;SDS011;49638;47.526;10.028;2023-03-01T10:46:21;25.55;;;12.55;;
63492;SDS011;49638;47.526;10.028;2023-03-01T10:49:34;23.33;;;11.35;;
63492;SDS011;49638;47.526;10.028;2023-03-01T10:52:36;24.45;;;11.30;;
63492;SDS011;49638;47.526;10.028;2023-03-01T10:55:38;23.90;;;11.52;;
63492;SDS011;49638;47.526;10.028;2023-03-01T10:58:40;25.38;;;11.90;;
63492;SDS011;49638;47.526;10.028;2023-03-01T11:02:39;25.75;;;12.15;;
63492;SDS011;49638;47.526;10.028;2023-03-01T11:05:28;29.00;;;11.77;;
63492;SDS011;49638;47.526;10.028;2023-03-01T11:08:31;26.35;;;12.57;;
63492;SDS011;49638;47.526;10.028;2023-03-01T11:11:34;24.52;;;12.00;;
63492;SDS011;49638;47.526;10.028;2023-03-01T11:14:35;24.45;;;10.98;;
63492;SDS011;49638;47.526;10.028;2023-03-01T11:17:37;22.92;;;10.95;;
63492;SDS011;49638;47.526;10.028;2023-03-01T11:20:43;25.08;;;12.27;;
63492;SDS011;49638;47.526;10.028;2023-03-01T11:23:43;28.77;;;12.60;;
63492;SDS011;49638;47.526;10.028;2023-03-01T11:26:49;29.20;;;12.50;;
63492;SDS011;49638;47.526;10.028;2023-03-01T11:30:03;27.60;;;12.07;;
63492;SDS011;49638;47.526;10.028;2023-03-01T11:33:15;23.85;;;10.07;;
63492;SDS011;49638;47.526;10.028;2023-03-01T11:36:40;29.65;;;13.18;;
63492;SDS011;49638;47.526;10.028;2023-03-01T11:39:58;33.58;;;14.18;;
63492;SDS011;49638;47.526;10.028;2023-03-01T11:50:05;31.38;;;14.18;;
63492;SDS011;49638;47.526;10.028;2023-03-01T11:56:38;31.80;;;14.50;;
63492;SDS011;49638;47.526;10.028;2023-03-01T12:03:29;32.67;;;15.07;;
63492;SDS011;49638;47.526;10.028;2023-03-01T12:12:58;36.13;;;16.55;;
63492;SDS011;49638;47.526;10.028;2023-03-01T12:26:35;38.95;;;16.88;;
63492;SDS011;49638;47.526;10.028;2023-03-01T12:33:33;37.70;;;16.70;;
63492;SDS011;49638;47.526;10.028;2023-03-01T12:36:52;35.40;;;16.65;;
63492;SDS011;49638;47.526;10.028;2023-03-01T12:43:25;38.75;;;17.40;;
63492;SDS011;49638;47.526;10.028;2023-03-01T12:49:45;26.88;;;13.00;;
63492;SDS011;49638;47.526;10.028;2023-03-01T12:52:52;36.40;;;16.77;;
63492;SDS011;49638;47.526;10.028;2023-03-01T12:55:56;39.65;;;17.58;;
63492;SDS011;49638;47.526;10.028;2023-03-01T12:59:23;37.92;;;17.30;;
63492;SDS011;49638;47.526;10.028;2023-03-01T13:06:07;37.25;;;16.38;;
63492;SDS011;49638;47.526;10.028;2023-03-01T13:15:49;40.50;;;17.80;;
63492;SDS011;49638;47.526;10.028;2023-03-01T13:18:51;43.28;;;18.58;;
63492;SDS011;49638;47.526;10.028;2023-03-01T13:22:25;37.60;;;17.52;;
63492;SDS011;49638;47.526;10.028;2023-03-01T13:25:29;39.22;;;16.98;;
63492;SDS011;49638;47.526;10.028;2023-03-01T13:34:49;37.95;;;16.90;;
63492;SDS011;49638;47.526;10.028;2023-03-01T13:37:52;39.13;;;17.63;;
63492;SDS011;49638;47.526;10.028;2023-03-01T13:41:13;41.95;;;17.25;;
63492;SDS011;49638;47.526;10.028;2023-03-01T13:44:34;41.50;;;18.88;;
63492;SDS011;49638;47.526;10.028;2023-03-01T13:47:38;39.47;;;17.60;;
63492;SDS011;49638;47.526;10.028;2023-03-01T13:50:43;39.72;;;17.00;;
63492;SDS011;49638;47.526;10.028;2023-03-01T13:53:48;40.30;;;17.52;;
63492;SDS011;49638;47.526;10.028;2023-03-01T13:56:48;41.72;;;17.90;;
63492;SDS011;49638;47.526;10.028;2023-03-01T13:59:48;36.38;;;16.98;;
63492;SDS011;49638;47.526;10.028;2023-03-01T14:02:58;40.97;;;17.58;;
63492;SDS011;49638;47.526;10.028;2023-03-01T14:06:20;38.00;;;17.33;;
63492;SDS011;49638;47.526;10.028;2023-03-01T14:09:24;44.35;;;19.15;;
63492;SDS011;49638;47.526;10.028;2023-03-01T14:16:11;44.97;;;16.25;;
63492;SDS011;49638;47.526;10.028;2023-03-01T14:19:36;40.50;;;16.95;;
63492;SDS011;49638;47.526;10.028;2023-03-01T14:22:36;41.92;;;18.17;;
63492;SDS011;49638;47.526;10.028;2023-03-01T14:25:52;45.65;;;18.38;;
63492;SDS011;49638;47.526;10.028;2023-03-01T14:28:54;40.45;;;17.02;;
63492;SDS011;49638;47.526;10.028;2023-03-01T14:32:01;38.83;;;17.05;;
63492;SDS011;49638;47.526;10.028;2023-03-01T14:35:18;40.40;;;17.17;;
63492;SDS011;49638;47.526;10.028;2023-03-01T14:38:22;39.33;;;17.13;;
63492;SDS011;49638;47.526;10.028;2023-03-01T14:41:24;42.90;;;18.45;;
63492;SDS011;49638;47.526;10.028;2023-03-01T14:44:27;43.45;;;18.23;;
63492;SDS011;49638;47.526;10.028;2023-03-01T14:47:30;56.63;;;25.70;;
63492;SDS011;49638;47.526;10.028;2023-03-01T14:53:35;44.97;;;18.83;;
63492;SDS011;49638;47.526;10.028;2023-03-01T14:56:43;72.13;;;30.83;;
63492;SDS011;49638;47.526;10.028;2023-03-01T14:59:45;40.30;;;18.50;;
63492;SDS011;49638;47.526;10.028;2023-03-01T15:02:48;49.70;;;22.15;;
63492;SDS011;49638;47.526;10.028;2023-03-01T15:05:50;41.80;;;19.25;;
63492;SDS011;49638;47.526;10.028;2023-03-01T15:08:52;40.22;;;17.85;;
63492;SDS011;49638;47.526;10.028;2023-03-01T15:11:54;29.33;;;13.00;;
63492;SDS011;49638;47.526;10.028;2023-03-01T15:14:55;112.05;;;51.95;;
63492;SDS011;49638;47.526;10.028;2023-03-01T15:18:00;46.03;;;20.80;;
63492;SDS011;49638;47.526;10.028;2023-03-01T15:21:29;42.40;;;18.23;;
63492;SDS011;49638;47.526;10.028;2023-03-01T15:24:31;48.42;;;19.73;;
63492;SDS011;49638;47.526;10.028;2023-03-01T15:27:36;42.90;;;18.17;;
63492;SDS011;49638;47.526;10.028;2023-03-01T15:30:36;37.53;;;16.98;;
63492;SDS011;49638;47.526;10.028;2023-03-01T15:33:37;41.38;;;17.27;;
63492;SDS011;49638;47.526;10.028;2023-03-01T15:36:42;41.55;;;17.13;;
63492;SDS011;49638;47.526;10.028;2023-03-01T15:39:53;39.53;;;17.23;;
63492;SDS011;49638;47.526;10.028;2023-03-01T15:42:55;38.33;;;17.00;;
63492;SDS011;49638;47.526;10.028;2023-03-01T15:45:56;42.00;;;17.77;;
63492;SDS011;49638;47.526;10.028;2023-03-01T15:48:59;43.42;;;18.88;;
63492;SDS011;49638;47.526;10.028;2023-03-01T15:55:03;40.80;;;16.50;;
63492;SDS011;49638;47.526;10.028;2023-03-01T15:58:09;42.20;;;18.15;;
63492;SDS011;49638;47.526;10.028;2023-03-01T16:01:13;47.03;;;20.80;;
63492;SDS011;49638;47.526;10.028;2023-03-01T16:04:16;46.13;;;20.23;;
63492;SDS011;49638;47.526;10.028;2023-03-01T16:07:22;40.42;;;17.55;;
63492;SDS011;49638;47.526;10.028;2023-03-01T16:10:23;45.30;;;18.88;;
63492;SDS011;49638;47.526;10.028;2023-03-01T16:13:24;44.03;;;18.17;;
63492;SDS011;49638;47.526;10.028;2023-03-01T16:16:25;41.40;;;18.05;;
63492;SDS011;49638;47.526;10.028;2023-03-01T16:19:25;47.50;;;19.20;;
63492;SDS011;49638;47.526;10.028;2023-03-01T16:22:25;49.85;;;20.60;;
63492;SDS011;49638;47.526;10.028;2023-03-01T16:25:27;43.47;;;18.73;;
63492;SDS011;49638;47.526;10.028;2023-03-01T16:28:28;45.67;;;18.55;;
63492;SDS011;49638;47.526;10.028;2023-03-01T16:31:28;42.20;;;17.33;;
63492;SDS011;49638;47.526;10.028;2023-03-01T16:34:29;41.58;;;18.42;;
63492;SDS011;49638;47.526;10.028;2023-03-01T16:37:31;43.35;;;17.75;;
63492;SDS011;49638;47.526;10.028;2023-03-01T16:40:33;42.63;;;18.23;;
63492;SDS011;49638;47.526;10.028;2023-03-01T16:43:33;49.20;;;19.40;;
63492;SDS011;49638;47.526;10.028;2023-03-01T16:46:33;47.13;;;18.70;;
63492;SDS011;49638;47.526;10.028;2023-03-01T16:49:33;45.75;;;19.40;;
63492;SDS011;49638;47.526;10.028;2023-03-01T16:52:34;43.97;;;18.52;;
63492;SDS011;49638;47.526;10.028;2023-03-01T16:55:34;44.15;;;17.58;;
63492;SDS011;49638;47.526;10.028;2023-03-01T16:58:35;44.30;;;18.95;;
63492;SDS011;49638;47.526;10.028;2023-03-01T17:01:36;40.78;;;17.92;;
63492;SDS011;49638;47.526;10.028;2023-03-01T17:04:40;45.92;;;19.77;;
63492;SDS011;49638;47.526;10.028;2023-03-01T17:07:41;42.88;;;18.33;;
63492;SDS011;49638;47.526;10.028;2023-03-01T17:10:42;46.00;;;17.75;;
63492;SDS011;49638;47.526;10.028;2023-03-01T17:13:43;49.15;;;20.48;;
63492;SDS011;49638;47.526;10.028;2023-03-01T17:16:43;54.63;;;23.75;;
63492;SDS011;49638;47.526;10.028;2023-03-01T17:19:44;50.83;;;22.60;;
63492;SDS011;49638;47.526;10.028;2023-03-01T17:22:45;43.97;;;18.20;;
63492;SDS011;49638;47.526;10.028;2023-03-01T17:25:45;52.05;;;20.45;;
63492;SDS011;49638;47.526;10.028;2023-03-01T17:28:46;46.65;;;19.98;;
63492;SDS011;49638;47.526;10.028;2023-03-01T17:31:51;54.25;;;22.20;;
63492;SDS011;49638;47.526;10.028;2023-03-01T17:34:53;65.40;;;27.85;;
63492;SDS011;49638;47.526;10.028;2023-03-01T17:37:53;58.53;;;22.92;;
63492;SDS011;49638;47.526;10.028;2023-03-01T17:40:54;53.20;;;20.23;;
63492;SDS011;49638;47.526;10.028;2023-03-01T17:43:54;49.15;;;19.63;;
63492;SDS011;49638;47.526;10.028;2023-03-01T17:46:54;47.28;;;19.08;;
63492;SDS011;49638;47.526;10.028;2023-03-01T17:49:54;44.50;;;18.38;;
63492;SDS011;49638;47.526;10.028;2023-03-01T17:52:55;47.72;;;19.65;;
63492;SDS011;49638;47.526;10.028;2023-03-01T17:55:59;45.83;;;19.25;;
63492;SDS011;49638;47.526;10.028;2023-03-01T17:59:01;45.47;;;18.88;;
63492;SDS011;49638;47.526;10.028;2023-03-01T18:02:03;52.63;;;19.73;;
63492;SDS011;49638;47.526;10.028;2023-03-01T18:05:03;48.03;;;19.02;;
63492;SDS011;49638;47.526;10.028;2023-03-01T18:08:04;44.20;;;18.38;;
63492;SDS011;49638;47.526;10.028;2023-03-01T18:11:04;44.05;;;18.67;;
63492;SDS011;49638;47.526;10.028;2023-03-01T18:14:05;57.50;;;21.63;;
63492;SDS011;49638;47.526;10.028;2023-03-01T18:17:05;50.50;;;20.65;;
63492;SDS011;49638;47.526;10.028;2023-03-01T18:20:10;53.80;;;21.77;;
63492;SDS011;49638;47.526;10.028;2023-03-01T18:23:12;52.25;;;21.35;;
63492;SDS011;49638;47.526;10.028;2023-03-01T18:26:12;57.53;;;22.13;;
63492;SDS011;49638;47.526;10.028;2023-03-01T18:29:16;55.63;;;21.58;;
63492;SDS011;49638;47.526;10.028;2023-03-01T18:32:16;52.97;;;20.92;;
63492;SDS011;49638;47.526;10.028;2023-03-01T18:35:16;48.72;;;19.80;;
63492;SDS011;49638;47.526;10.028;2023-03-01T18:38:17;52.47;;;20.30;;
63492;SDS011;49638;47.526;10.028;2023-03-01T18:41:18;49.78;;;20.00;;
63492;SDS011;49638;47.526;10.028;2023-03-01T18:44:18;45.28;;;19.13;;
63492;SDS011;49638;47.526;10.028;2023-03-01T18:47:18;46.85;;;18.92;;
63492;SDS011;49638;47.526;10.028;2023-03-01T18:50:19;45.83;;;18.85;;
63492;SDS011;49638;47.526;10.028;2023-03-01T18:53:19;47.95;;;17.80;;
63492;SDS011;49638;47.526;10.028;2023-03-01T18:56:20;46.53;;;19.05;;
63492;SDS011;49638;47.526;10.028;2023-03-01T18:59:20;45.00;;;19.35;;
63492;SDS011;49638;47.526;10.028;2023-03-01T19:02:20;48.95;;;20.42;;
63492;SDS011;49638;47.526;10.028;2023-03-01T19:05:20;49.28;;;19.40;;
63492;SDS011;49638;47.526;10.028;2023-03-01T19:08:22;48.42;;;20.00;;